Schedule Details


Flight Number: CTN301
Departure: Cilipi (LDDU) at 21:05
Arrival: Franjo Tudman (LDZA) at 22:00
Route: MADOS L187 VRANA UL187 KOMAR L187 TEBLI

Weather Information
LDDU 092300Z VRB01KT CAVOK 13/02 Q1019
LDZA 092300Z 25004KT CAVOK 05/M00 Q1022 NOSIG
Schedule Frequency

Route Map